Time,TemperatureF,DewpointF,PressureIn,WindDirection,WindDirectionDegrees,WindSpeedMPH,WindSpeedGustMPH,Humidity,HourlyPrecipIn,Conditions,Clouds,dailyrainin,SolarRadiationWatts/m^2,SoftwareType,DateUTC
2013-05-14 00:04:00,72.0,63.0,-100.00,SSW,205,6.0,22.0,73,0.00,,,0.04,0.000000,,2013-05-14 10:04:00,
2013-05-14 00:14:00,72.0,63.0,-100.00,SSW,205,6.0,22.0,73,0.00,,,0.04,0.000000,,2013-05-14 10:14:00,
2013-05-14 00:25:00,72.0,63.0,-100.00,SSW,205,6.0,22.0,73,0.00,,,0.04,0.000000,,2013-05-14 10:25:00,
2013-05-14 00:32:00,72.0,63.0,-100.00,SSW,205,6.0,22.0,73,0.00,,,0.04,0.000000,,2013-05-14 10:32:00,
2013-05-14 01:02:00,72.0,63.0,-100.00,ESE,106,4.0,14.0,74,0.00,,,0.04,0.000000,,2013-05-14 11:02:00,
2013-05-14 01:11:00,72.0,63.0,-100.00,ESE,106,4.0,14.0,74,0.00,,,0.04,0.000000,,2013-05-14 11:11:00,
2013-05-14 01:21:00,72.0,63.0,-100.00,ESE,106,4.0,14.0,74,0.00,,,0.04,0.000000,,2013-05-14 11:21:00,
2013-05-14 01:32:00,72.0,63.0,-100.00,ESE,106,4.0,14.0,74,0.00,,,0.04,0.000000,,2013-05-14 11:32:00,
2013-05-14 02:02:00,72.0,63.0,-100.00,SSW,202,5.0,19.0,73,0.00,,,0.04,0.000000,,2013-05-14 12:02:00,
2013-05-14 02:12:00,72.0,63.0,-100.00,SSW,202,5.0,19.0,73,0.00,,,0.04,0.000000,,2013-05-14 12:12:00,
2013-05-14 02:21:00,72.0,63.0,-100.00,SSW,202,5.0,19.0,73,0.00,,,0.04,0.000000,,2013-05-14 12:21:00,
2013-05-14 02:31:00,72.0,63.0,-100.00,SSW,202,5.0,19.0,73,0.00,,,0.04,0.000000,,2013-05-14 12:31:00,
2013-05-14 03:01:00,73.0,65.0,-100.00,SSW,194,5.0,13.0,75,0.00,,,0.04,0.000000,,2013-05-14 13:01:00,
2013-05-14 03:11:00,73.0,65.0,-100.00,SSW,194,5.0,13.0,75,0.00,,,0.04,0.000000,,2013-05-14 13:11:00,
2013-05-14 03:22:00,73.0,65.0,-100.00,SSW,194,5.0,13.0,75,0.00,,,0.04,0.000000,,2013-05-14 13:22:00,
2013-05-14 03:32:00,73.0,65.0,-100.00,SSW,194,5.0,13.0,75,0.00,,,0.04,0.000000,,2013-05-14 13:32:00,
2013-05-14 04:01:00,72.0,64.0,-100.00,WSW,246,7.0,17.0,75,0.00,,,0.04,0.000000,,2013-05-14 14:01:00,
2013-05-14 04:11:00,72.0,64.0,-100.00,WSW,246,7.0,17.0,75,0.00,,,0.04,0.000000,,2013-05-14 14:11:00,
2013-05-14 04:22:00,72.0,64.0,-100.00,WSW,246,7.0,17.0,75,0.00,,,0.04,0.000000,,2013-05-14 14:22:00,
2013-05-14 04:31:00,72.0,64.0,-100.00,WSW,246,7.0,17.0,75,0.00,,,0.04,0.000000,,2013-05-14 14:31:00,
2013-05-14 05:01:00,73.0,65.0,-100.00,ENE,67,5.0,17.0,75,0.00,,,0.03,0.000000,,2013-05-14 15:01:00,
2013-05-14 05:12:00,73.0,65.0,-100.00,ENE,67,5.0,17.0,75,0.00,,,0.03,0.000000,,2013-05-14 15:12:00,
2013-05-14 05:21:00,73.0,65.0,-100.00,ENE,67,5.0,17.0,75,0.00,,,0.03,0.000000,,2013-05-14 15:21:00,
2013-05-14 05:32:00,73.0,65.0,-100.00,ENE,67,5.0,17.0,75,0.00,,,0.03,0.000000,,2013-05-14 15:32:00,
2013-05-14 06:02:00,71.0,65.0,-100.00,WSW,249,3.0,15.0,81,0.00,,,0.01,0.000000,,2013-05-14 16:02:00,
2013-05-14 06:12:00,71.0,65.0,-100.00,WSW,249,3.0,15.0,81,0.00,,,0.01,0.000000,,2013-05-14 16:12:00,
2013-05-14 06:23:00,71.0,65.0,-100.00,WSW,249,3.0,15.0,81,0.00,,,0.01,0.000000,,2013-05-14 16:23:00,
2013-05-14 06:33:00,71.0,65.0,-100.00,WSW,249,3.0,15.0,81,0.00,,,0.01,0.000000,,2013-05-14 16:33:00,
2013-05-14 07:03:00,73.0,65.0,-100.00,ESE,121,6.0,15.0,77,0.00,,,0.00,0.000000,,2013-05-14 17:03:00,
2013-05-14 07:13:00,73.0,65.0,-100.00,ESE,121,6.0,15.0,77,0.00,,,0.00,0.000000,,2013-05-14 17:13:00,
2013-05-14 07:24:00,73.0,65.0,-100.00,ESE,121,6.0,15.0,77,0.00,,,0.00,0.000000,,2013-05-14 17:24:00,
2013-05-14 07:32:00,73.0,65.0,-100.00,ESE,121,6.0,15.0,77,0.00,,,0.00,0.000000,,2013-05-14 17:32:00,
2013-05-14 08:02:00,74.0,66.0,-100.00,WSW,237,5.0,19.0,75,0.00,,,0.00,18.000000,,2013-05-14 18:02:00,
2013-05-14 08:12:00,74.0,66.0,-100.00,WSW,237,5.0,19.0,75,0.00,,,0.00,18.000000,,2013-05-14 18:12:00,
2013-05-14 08:22:00,74.0,66.0,-100.00,WSW,237,5.0,19.0,75,0.00,,,0.00,18.000000,,2013-05-14 18:22:00,
2013-05-14 08:31:00,74.0,66.0,-100.00,WSW,237,5.0,19.0,75,0.00,,,0.00,18.000000,,2013-05-14 18:31:00,
2013-05-14 09:01:00,76.0,65.0,-100.00,SW,235,5.0,19.0,70,0.00,,,0.00,76.000000,,2013-05-14 19:01:00,
2013-05-14 09:11:00,76.0,65.0,-100.00,SW,235,5.0,19.0,70,0.00,,,0.00,76.000000,,2013-05-14 19:11:00,
2013-05-14 09:21:00,76.0,65.0,-100.00,SW,235,5.0,19.0,70,0.00,,,0.00,76.000000,,2013-05-14 19:21:00,
2013-05-14 09:31:00,76.0,65.0,-100.00,SW,235,5.0,19.0,70,0.00,,,0.00,76.000000,,2013-05-14 19:31:00,
2013-05-14 10:02:00,78.0,64.0,-100.00,NW,311,5.0,19.0,62,0.00,,,0.00,192.000000,,2013-05-14 20:02:00,
2013-05-14 10:11:00,78.0,64.0,-100.00,NW,311,5.0,19.0,62,0.00,,,0.00,192.000000,,2013-05-14 20:11:00,
2013-05-14 10:22:00,78.0,64.0,-100.00,NW,311,5.0,19.0,62,0.00,,,0.00,192.000000,,2013-05-14 20:22:00,
2013-05-14 10:32:00,78.0,64.0,-100.00,NW,311,5.0,19.0,62,0.00,,,0.00,192.000000,,2013-05-14 20:32:00,
2013-05-14 11:03:00,82.0,64.0,-100.00,ESE,112,8.0,27.0,54,0.00,,,0.00,521.000000,,2013-05-14 21:03:00,
2013-05-14 11:12:00,82.0,64.0,-100.00,ESE,112,8.0,27.0,54,0.00,,,0.00,521.000000,,2013-05-14 21:12:00,
2013-05-14 11:22:00,82.0,64.0,-100.00,ESE,112,8.0,27.0,54,0.00,,,0.00,521.000000,,2013-05-14 21:22:00,
2013-05-14 11:33:00,82.0,64.0,-100.00,ESE,112,8.0,27.0,54,0.00,,,0.00,521.000000,,2013-05-14 21:33:00,
2013-05-14 12:03:00,84.0,66.0,-100.00,SSE,159,7.0,21.0,54,0.01,,,0.01,1072.000000,,2013-05-14 22:03:00,
2013-05-14 12:13:00,84.0,66.0,-100.00,SSE,159,7.0,21.0,54,0.01,,,0.01,1072.000000,,2013-05-14 22:13:00,
2013-05-14 12:24:00,84.0,66.0,-100.00,SSE,159,7.0,21.0,54,0.01,,,0.01,1072.000000,,2013-05-14 22:24:00,
2013-05-14 12:34:00,84.0,66.0,-100.00,SSE,159,7.0,21.0,54,0.01,,,0.01,1072.000000,,2013-05-14 22:34:00,
2013-05-14 13:03:00,85.0,65.0,-100.00,SSE,160,8.0,26.0,51,0.00,,,0.01,1255.000000,,2013-05-14 23:03:00,
2013-05-14 13:12:00,85.0,65.0,-100.00,SSE,160,8.0,26.0,51,0.00,,,0.01,1255.000000,,2013-05-14 23:12:00,
2013-05-14 13:21:00,85.0,65.0,-100.00,SSE,160,8.0,26.0,51,0.00,,,0.01,1255.000000,,2013-05-14 23:21:00,
2013-05-14 13:31:00,85.0,65.0,-100.00,SSE,160,8.0,26.0,51,0.00,,,0.01,1255.000000,,2013-05-14 23:31:00,
2013-05-14 14:01:00,85.0,66.0,-100.00,South,178,5.0,21.0,53,0.00,,,0.01,1388.000000,,2013-05-15 00:01:00,
2013-05-14 14:11:00,85.0,66.0,-100.00,South,178,5.0,21.0,53,0.00,,,0.01,1388.000000,,2013-05-15 00:11:00,
2013-05-14 14:21:00,85.0,66.0,-100.00,South,178,5.0,21.0,53,0.00,,,0.01,1388.000000,,2013-05-15 00:21:00,
2013-05-14 14:32:00,85.0,66.0,-100.00,South,178,5.0,21.0,53,0.00,,,0.01,1388.000000,,2013-05-15 00:32:00,
2013-05-14 15:01:00,81.0,64.0,-100.00,SSE,154,9.0,22.0,56,0.00,,,0.01,1074.000000,,2013-05-15 01:01:00,
2013-05-14 15:11:00,81.0,64.0,-100.00,SSE,154,9.0,22.0,56,0.00,,,0.01,1074.000000,,2013-05-15 01:11:00,
2013-05-14 15:21:00,81.0,64.0,-100.00,SSE,154,9.0,22.0,56,0.00,,,0.01,1074.000000,,2013-05-15 01:21:00,
2013-05-14 15:31:00,81.0,64.0,-100.00,SSE,154,9.0,22.0,56,0.00,,,0.01,1074.000000,,2013-05-15 01:31:00,
2013-05-14 16:01:00,81.0,63.0,-100.00,SSE,150,6.0,26.0,54,0.00,,,0.01,583.000000,,2013-05-15 02:01:00,
2013-05-14 16:11:00,81.0,63.0,-100.00,SSE,150,6.0,26.0,54,0.00,,,0.01,583.000000,,2013-05-15 02:11:00,
2013-05-14 16:21:00,81.0,63.0,-100.00,SSE,150,6.0,26.0,54,0.00,,,0.01,583.000000,,2013-05-15 02:21:00,
2013-05-14 16:31:00,81.0,63.0,-100.00,SSE,150,6.0,26.0,54,0.00,,,0.01,583.000000,,2013-05-15 02:31:00,
2013-05-14 17:01:00,79.0,62.0,-100.00,SE,145,4.0,19.0,57,0.00,,,0.01,638.000000,,2013-05-15 03:01:00,
2013-05-14 17:12:00,79.0,62.0,-100.00,SE,145,4.0,19.0,57,0.00,,,0.01,638.000000,,2013-05-15 03:12:00,
2013-05-14 17:21:00,79.0,62.0,-100.00,SE,145,4.0,19.0,57,0.00,,,0.01,638.000000,,2013-05-15 03:21:00,
2013-05-14 17:33:00,79.0,62.0,-100.00,SE,145,4.0,19.0,57,0.00,,,0.01,638.000000,,2013-05-15 03:33:00,
2013-05-14 18:03:00,75.0,61.0,-100.00,SW,231,5.0,19.0,62,0.00,,,0.01,236.000000,,2013-05-15 04:03:00,
2013-05-14 18:12:00,75.0,61.0,-100.00,SW,231,5.0,19.0,62,0.00,,,0.01,236.000000,,2013-05-15 04:12:00,
2013-05-14 18:23:00,75.0,61.0,-100.00,SW,231,5.0,19.0,62,0.00,,,0.01,236.000000,,2013-05-15 04:23:00,
2013-05-14 18:32:00,75.0,61.0,-100.00,SW,231,5.0,19.0,62,0.00,,,0.01,236.000000,,2013-05-15 04:32:00,
2013-05-14 19:02:00,74.0,61.0,-100.00,NE,37,5.0,20.0,65,0.00,,,0.01,70.000000,,2013-05-15 05:02:00,
2013-05-14 19:12:00,74.0,61.0,-100.00,NE,37,5.0,20.0,65,0.00,,,0.01,70.000000,,2013-05-15 05:12:00,
2013-05-14 19:22:00,74.0,61.0,-100.00,NE,37,5.0,20.0,65,0.00,,,0.01,70.000000,,2013-05-15 05:22:00,
2013-05-14 19:32:00,74.0,61.0,-100.00,NE,37,5.0,20.0,65,0.00,,,0.01,70.000000,,2013-05-15 05:32:00,
2013-05-14 20:02:00,74.0,62.0,-100.00,South,177,6.0,25.0,66,0.00,,,0.01,32.000000,,2013-05-15 06:02:00,
2013-05-14 20:11:00,74.0,62.0,-100.00,South,177,6.0,25.0,66,0.00,,,0.01,32.000000,,2013-05-15 06:11:00,
2013-05-14 20:21:00,74.0,62.0,-100.00,South,177,6.0,25.0,66,0.00,,,0.01,32.000000,,2013-05-15 06:21:00,
2013-05-14 20:31:00,74.0,62.0,-100.00,South,177,6.0,25.0,66,0.00,,,0.01,32.000000,,2013-05-15 06:31:00,
2013-05-14 21:01:00,74.0,62.0,-100.00,NE,40,7.0,25.0,67,0.00,,,0.01,7.000000,,2013-05-15 07:01:00,
2013-05-14 21:11:00,74.0,62.0,-100.00,NE,40,7.0,25.0,67,0.00,,,0.01,7.000000,,2013-05-15 07:11:00,
2013-05-14 21:21:00,74.0,62.0,-100.00,NE,40,7.0,25.0,67,0.00,,,0.01,7.000000,,2013-05-15 07:21:00,
2013-05-14 21:31:00,74.0,62.0,-100.00,NE,40,7.0,25.0,67,0.00,,,0.01,7.000000,,2013-05-15 07:31:00,
2013-05-14 22:02:00,74.0,62.0,-100.00,South,185,6.0,24.0,67,0.00,,,0.01,0.000000,,2013-05-15 08:02:00,
2013-05-14 22:12:00,74.0,62.0,-100.00,South,185,6.0,24.0,67,0.00,,,0.01,0.000000,,2013-05-15 08:12:00,
2013-05-14 22:21:00,74.0,62.0,-100.00,South,185,6.0,24.0,67,0.00,,,0.01,0.000000,,2013-05-15 08:21:00,
2013-05-14 22:31:00,74.0,62.0,-100.00,South,185,6.0,24.0,67,0.00,,,0.01,0.000000,,2013-05-15 08:31:00,
2013-05-14 23:01:00,74.0,63.0,-100.00,NE,37,10.0,28.0,69,0.00,,,0.01,0.000000,,2013-05-15 09:01:00,
2013-05-14 23:11:00,74.0,63.0,-100.00,NE,37,10.0,28.0,69,0.00,,,0.01,0.000000,,2013-05-15 09:11:00,
2013-05-14 23:21:00,74.0,63.0,-100.00,NE,37,10.0,28.0,69,0.00,,,0.01,0.000000,,2013-05-15 09:21:00,
2013-05-14 23:32:00,74.0,63.0,-100.00,NE,37,10.0,28.0,69,0.00,,,0.01,0.000000,,2013-05-15 09:32:00,